Pagrindinis puslapis
METAR-TAF:

METAR-TAF

Oro uostai :

Farmingdale, Niujorko valstija, Jungtinės Amerikos Valstijos

platuma: 40-44-03N, ilguma: 073-25-01W, Aukštis: 24 m

Dabartinis oras

Ataskaita buvo paskelbta 22 minutes, ne 05:53 UTC
Vėjas 16 kt iš Vakarų su gūsio iki 29 kt
Temperatūra 0°C
Drėgmė 40%
Slėgis 1010 hPa
Matomumas: 16.1 km
Giedras dangus

METAR: KFRG 280553Z AUTO 27016G29KT 10SM CLR 00/M12 A2983 RMK AO2 PK WND 28029/0504 SLP101 T00001122 10022 20000 51010

Laikas: 01:15 (06:15 UTC)


TAF: trūkstamas

Orai ataskaitas ir orų prognozės (METAR, TAF).

turimą stotys yra geltonos ir raudonos taškus žemėlapyje.

Perkelti pele per norėdami pamatyti stoties vardą.

Tada spustelėkite, norėdami matyti oro stebėjimo ir prognozės.

Norėdami pakeisti žemėlapį: spustelėkite ant žalios mygtukų su juodo kryžiaus žemyn,; žalią mygtuką su brūkšneliu, jei norite nutolinti; arba žalių rodyklių gretimoms žemėlapius.


METAR-TAF: